sensor_id;sensor_type;location;lat;lon;timestamp;P1;durP1;ratioP1;P2;durP2;ratioP2
69795;SDS011;57073;45.650;9.612;2023-12-29T00:00:25;42.90;;;25.67;;
69795;SDS011;57073;45.650;9.612;2023-12-29T00:05:26;48.20;;;25.97;;
69795;SDS011;57073;45.650;9.612;2023-12-29T00:10:27;43.65;;;25.52;;
69795;SDS011;57073;45.650;9.612;2023-12-29T00:15:27;43.47;;;24.63;;
69795;SDS011;57073;45.650;9.612;2023-12-29T00:20:28;47.27;;;26.27;;
69795;SDS011;57073;45.650;9.612;2023-12-29T00:25:29;46.67;;;26.20;;
69795;SDS011;57073;45.650;9.612;2023-12-29T00:30:29;43.07;;;25.60;;
69795;SDS011;57073;45.650;9.612;2023-12-29T00:35:30;43.13;;;25.73;;
69795;SDS011;57073;45.650;9.612;2023-12-29T00:40:30;42.20;;;24.90;;
69795;SDS011;57073;45.650;9.612;2023-12-29T00:45:31;42.10;;;24.05;;
69795;SDS011;57073;45.650;9.612;2023-12-29T00:50:35;43.75;;;24.27;;
69795;SDS011;57073;45.650;9.612;2023-12-29T00:55:36;47.00;;;24.60;;
69795;SDS011;57073;45.650;9.612;2023-12-29T01:00:36;41.67;;;24.07;;
69795;SDS011;57073;45.650;9.612;2023-12-29T01:05:36;44.60;;;23.93;;
69795;SDS011;57073;45.650;9.612;2023-12-29T01:10:37;40.07;;;23.30;;
69795;SDS011;57073;45.650;9.612;2023-12-29T01:15:37;39.17;;;23.13;;
69795;SDS011;57073;45.650;9.612;2023-12-29T01:20:40;39.60;;;23.25;;
69795;SDS011;57073;45.650;9.612;2023-12-29T01:25:41;41.53;;;22.90;;
69795;SDS011;57073;45.650;9.612;2023-12-29T01:30:41;34.67;;;21.47;;
69795;SDS011;57073;45.650;9.612;2023-12-29T01:35:42;34.67;;;21.90;;
69795;SDS011;57073;45.650;9.612;2023-12-29T01:40:45;36.43;;;21.43;;
69795;SDS011;57073;45.650;9.612;2023-12-29T01:45:46;41.13;;;22.05;;
69795;SDS011;57073;45.650;9.612;2023-12-29T01:50:47;36.33;;;23.30;;
69795;SDS011;57073;45.650;9.612;2023-12-29T01:55:47;40.10;;;23.20;;
69795;SDS011;57073;45.650;9.612;2023-12-29T02:00:48;36.67;;;20.80;;
69795;SDS011;57073;45.650;9.612;2023-12-29T02:05:49;36.13;;;21.77;;
69795;SDS011;57073;45.650;9.612;2023-12-29T02:10:50;35.28;;;19.98;;
69795;SDS011;57073;45.650;9.612;2023-12-29T02:15:51;33.60;;;20.77;;
69795;SDS011;57073;45.650;9.612;2023-12-29T02:20:52;35.30;;;20.77;;
69795;SDS011;57073;45.650;9.612;2023-12-29T02:25:52;40.67;;;20.67;;
69795;SDS011;57073;45.650;9.612;2023-12-29T02:31:04;32.30;;;19.80;;
69795;SDS011;57073;45.650;9.612;2023-12-29T02:36:09;31.35;;;19.58;;
69795;SDS011;57073;45.650;9.612;2023-12-29T02:41:11;35.00;;;19.57;;
69795;SDS011;57073;45.650;9.612;2023-12-29T02:46:13;32.70;;;19.60;;
69795;SDS011;57073;45.650;9.612;2023-12-29T02:51:13;35.37;;;19.90;;
69795;SDS011;57073;45.650;9.612;2023-12-29T02:56:14;34.53;;;20.20;;
69795;SDS011;57073;45.650;9.612;2023-12-29T03:01:14;32.77;;;19.77;;
69795;SDS011;57073;45.650;9.612;2023-12-29T03:06:15;35.70;;;21.13;;
69795;SDS011;57073;45.650;9.612;2023-12-29T03:11:15;35.80;;;20.70;;
69795;SDS011;57073;45.650;9.612;2023-12-29T03:16:15;33.77;;;19.67;;
69795;SDS011;57073;45.650;9.612;2023-12-29T03:21:16;36.40;;;20.23;;
69795;SDS011;57073;45.650;9.612;2023-12-29T03:26:16;41.27;;;20.90;;
69795;SDS011;57073;45.650;9.612;2023-12-29T03:31:17;42.63;;;21.03;;
69795;SDS011;57073;45.650;9.612;2023-12-29T03:36:17;35.20;;;20.07;;
69795;SDS011;57073;45.650;9.612;2023-12-29T03:41:17;29.17;;;19.03;;
69795;SDS011;57073;45.650;9.612;2023-12-29T03:46:19;34.25;;;20.20;;
69795;SDS011;57073;45.650;9.612;2023-12-29T03:51:21;31.13;;;19.63;;
69795;SDS011;57073;45.650;9.612;2023-12-29T03:56:21;34.87;;;19.27;;
69795;SDS011;57073;45.650;9.612;2023-12-29T04:01:21;35.97;;;20.47;;
69795;SDS011;57073;45.650;9.612;2023-12-29T04:06:22;32.97;;;20.07;;
69795;SDS011;57073;45.650;9.612;2023-12-29T04:11:22;29.50;;;19.07;;
69795;SDS011;57073;45.650;9.612;2023-12-29T04:16:23;35.57;;;19.17;;
69795;SDS011;57073;45.650;9.612;2023-12-29T04:21:23;32.80;;;18.80;;
69795;SDS011;57073;45.650;9.612;2023-12-29T04:26:23;37.03;;;19.77;;
69795;SDS011;57073;45.650;9.612;2023-12-29T04:31:24;35.37;;;19.90;;
69795;SDS011;57073;45.650;9.612;2023-12-29T04:36:24;31.40;;;18.90;;
69795;SDS011;57073;45.650;9.612;2023-12-29T04:41:24;34.67;;;19.80;;
69795;SDS011;57073;45.650;9.612;2023-12-29T04:46:25;31.43;;;19.40;;
69795;SDS011;57073;45.650;9.612;2023-12-29T04:51:25;31.93;;;19.00;;
69795;SDS011;57073;45.650;9.612;2023-12-29T04:56:26;34.13;;;18.47;;
69795;SDS011;57073;45.650;9.612;2023-12-29T05:01:26;29.23;;;18.27;;
69795;SDS011;57073;45.650;9.612;2023-12-29T05:06:26;30.90;;;18.87;;
69795;SDS011;57073;45.650;9.612;2023-12-29T05:11:27;27.20;;;17.40;;
69795;SDS011;57073;45.650;9.612;2023-12-29T05:16:28;28.48;;;17.50;;
69795;SDS011;57073;45.650;9.612;2023-12-29T05:21:28;30.83;;;18.43;;
69795;SDS011;57073;45.650;9.612;2023-12-29T05:26:28;29.17;;;17.73;;
69795;SDS011;57073;45.650;9.612;2023-12-29T05:31:29;31.57;;;18.00;;
69795;SDS011;57073;45.650;9.612;2023-12-29T05:36:29;31.83;;;18.13;;
69795;SDS011;57073;45.650;9.612;2023-12-29T05:41:29;32.80;;;18.60;;
69795;SDS011;57073;45.650;9.612;2023-12-29T05:46:30;27.37;;;18.00;;
69795;SDS011;57073;45.650;9.612;2023-12-29T05:51:30;33.30;;;18.63;;
69795;SDS011;57073;45.650;9.612;2023-12-29T05:56:31;32.67;;;18.33;;
69795;SDS011;57073;45.650;9.612;2023-12-29T06:01:31;31.33;;;17.90;;
69795;SDS011;57073;45.650;9.612;2023-12-29T06:06:31;29.77;;;17.90;;
69795;SDS011;57073;45.650;9.612;2023-12-29T06:11:32;28.40;;;16.57;;
69795;SDS011;57073;45.650;9.612;2023-12-29T06:16:32;28.80;;;16.67;;
69795;SDS011;57073;45.650;9.612;2023-12-29T06:21:32;33.10;;;17.30;;
69795;SDS011;57073;45.650;9.612;2023-12-29T06:26:33;35.03;;;16.80;;
69795;SDS011;57073;45.650;9.612;2023-12-29T06:31:33;30.98;;;18.05;;
69795;SDS011;57073;45.650;9.612;2023-12-29T06:36:34;35.50;;;17.63;;
69795;SDS011;57073;45.650;9.612;2023-12-29T06:41:34;30.20;;;17.57;;
69795;SDS011;57073;45.650;9.612;2023-12-29T06:46:36;27.10;;;17.63;;
69795;SDS011;57073;45.650;9.612;2023-12-29T06:51:37;27.27;;;16.02;;
69795;SDS011;57073;45.650;9.612;2023-12-29T06:56:40;27.98;;;15.50;;
69795;SDS011;57073;45.650;9.612;2023-12-29T07:01:41;21.57;;;12.80;;
69795;SDS011;57073;45.650;9.612;2023-12-29T07:06:41;23.63;;;13.47;;
69795;SDS011;57073;45.650;9.612;2023-12-29T07:11:46;20.47;;;12.53;;
69795;SDS011;57073;45.650;9.612;2023-12-29T07:16:47;24.67;;;11.90;;
69795;SDS011;57073;45.650;9.612;2023-12-29T07:21:47;24.10;;;13.40;;
69795;SDS011;57073;45.650;9.612;2023-12-29T07:26:48;18.73;;;12.17;;
69795;SDS011;57073;45.650;9.612;2023-12-29T07:31:48;18.23;;;12.20;;
69795;SDS011;57073;45.650;9.612;2023-12-29T07:36:49;19.83;;;11.30;;
69795;SDS011;57073;45.650;9.612;2023-12-29T07:41:49;18.07;;;11.10;;
69795;SDS011;57073;45.650;9.612;2023-12-29T07:46:50;17.67;;;10.77;;
69795;SDS011;57073;45.650;9.612;2023-12-29T07:51:51;18.30;;;10.27;;
69795;SDS011;57073;45.650;9.612;2023-12-29T07:56:51;19.53;;;10.20;;
69795;SDS011;57073;45.650;9.612;2023-12-29T08:01:51;15.90;;;9.60;;
69795;SDS011;57073;45.650;9.612;2023-12-29T08:06:52;17.30;;;10.47;;
69795;SDS011;57073;45.650;9.612;2023-12-29T08:11:52;20.43;;;10.70;;
69795;SDS011;57073;45.650;9.612;2023-12-29T08:16:53;21.67;;;11.90;;
69795;SDS011;57073;45.650;9.612;2023-12-29T08:21:53;21.10;;;12.57;;
69795;SDS011;57073;45.650;9.612;2023-12-29T08:26:53;22.27;;;13.50;;
69795;SDS011;57073;45.650;9.612;2023-12-29T08:31:54;24.30;;;13.43;;
69795;SDS011;57073;45.650;9.612;2023-12-29T08:36:54;23.47;;;13.23;;
69795;SDS011;57073;45.650;9.612;2023-12-29T08:41:55;28.93;;;14.67;;
69795;SDS011;57073;45.650;9.612;2023-12-29T08:46:55;25.80;;;15.20;;
69795;SDS011;57073;45.650;9.612;2023-12-29T08:51:56;25.70;;;15.37;;
69795;SDS011;57073;45.650;9.612;2023-12-29T08:56:56;25.50;;;15.00;;
69795;SDS011;57073;45.650;9.612;2023-12-29T09:01:56;25.97;;;15.10;;
69795;SDS011;57073;45.650;9.612;2023-12-29T09:06:57;27.27;;;16.17;;
69795;SDS011;57073;45.650;9.612;2023-12-29T09:11:57;25.57;;;15.43;;
69795;SDS011;57073;45.650;9.612;2023-12-29T09:16:57;28.93;;;15.60;;
69795;SDS011;57073;45.650;9.612;2023-12-29T09:21:58;25.02;;;15.50;;
69795;SDS011;57073;45.650;9.612;2023-12-29T09:26:58;26.60;;;14.60;;
69795;SDS011;57073;45.650;9.612;2023-12-29T09:31:58;23.10;;;13.35;;
69795;SDS011;57073;45.650;9.612;2023-12-29T09:36:59;23.87;;;13.00;;
69795;SDS011;57073;45.650;9.612;2023-12-29T09:41:59;27.83;;;13.30;;
69795;SDS011;57073;45.650;9.612;2023-12-29T09:47:03;24.33;;;13.63;;
69795;SDS011;57073;45.650;9.612;2023-12-29T09:52:07;23.80;;;13.98;;
69795;SDS011;57073;45.650;9.612;2023-12-29T09:57:10;27.43;;;14.40;;
69795;SDS011;57073;45.650;9.612;2023-12-29T10:02:14;23.88;;;14.52;;
69795;SDS011;57073;45.650;9.612;2023-12-29T10:07:20;21.83;;;13.50;;
69795;SDS011;57073;45.650;9.612;2023-12-29T10:12:25;24.97;;;14.10;;
69795;SDS011;57073;45.650;9.612;2023-12-29T10:23:08;25.47;;;15.57;;
69795;SDS011;57073;45.650;9.612;2023-12-29T10:28:16;26.15;;;16.08;;
69795;SDS011;57073;45.650;9.612;2023-12-29T10:33:20;26.23;;;16.27;;
69795;SDS011;57073;45.650;9.612;2023-12-29T10:38:21;26.93;;;15.50;;
69795;SDS011;57073;45.650;9.612;2023-12-29T10:43:24;25.23;;;15.40;;
69795;SDS011;57073;45.650;9.612;2023-12-29T10:48:25;24.95;;;14.45;;
69795;SDS011;57073;45.650;9.612;2023-12-29T10:53:25;22.37;;;14.23;;
69795;SDS011;57073;45.650;9.612;2023-12-29T10:58:29;26.33;;;15.27;;
69795;SDS011;57073;45.650;9.612;2023-12-29T11:03:30;29.17;;;15.10;;
69795;SDS011;57073;45.650;9.612;2023-12-29T11:08:32;26.80;;;15.77;;
69795;SDS011;57073;45.650;9.612;2023-12-29T11:13:35;26.15;;;15.63;;
69795;SDS011;57073;45.650;9.612;2023-12-29T11:18:36;30.20;;;16.00;;
69795;SDS011;57073;45.650;9.612;2023-12-29T11:23:38;25.98;;;15.60;;
69795;SDS011;57073;45.650;9.612;2023-12-29T11:28:39;28.73;;;16.10;;
69795;SDS011;57073;45.650;9.612;2023-12-29T11:33:40;27.97;;;17.00;;
69795;SDS011;57073;45.650;9.612;2023-12-29T11:44:06;31.13;;;17.60;;
69795;SDS011;57073;45.650;9.612;2023-12-29T11:49:06;26.13;;;16.77;;
69795;SDS011;57073;45.650;9.612;2023-12-29T11:54:07;26.73;;;16.47;;
69795;SDS011;57073;45.650;9.612;2023-12-29T12:09:37;26.67;;;15.43;;
69795;SDS011;57073;45.650;9.612;2023-12-29T12:19:48;27.90;;;16.13;;
69795;SDS011;57073;45.650;9.612;2023-12-29T12:24:54;24.37;;;15.90;;
69795;SDS011;57073;45.650;9.612;2023-12-29T12:29:56;28.10;;;17.20;;
69795;SDS011;57073;45.650;9.612;2023-12-29T12:34:59;26.50;;;15.75;;
69795;SDS011;57073;45.650;9.612;2023-12-29T12:39:59;26.03;;;15.77;;
69795;SDS011;57073;45.650;9.612;2023-12-29T12:45:10;28.60;;;15.97;;
69795;SDS011;57073;45.650;9.612;2023-12-29T12:50:12;28.02;;;16.73;;
69795;SDS011;57073;45.650;9.612;2023-12-29T12:55:13;26.20;;;15.70;;
69795;SDS011;57073;45.650;9.612;2023-12-29T13:00:14;27.88;;;16.08;;
69795;SDS011;57073;45.650;9.612;2023-12-29T13:05:16;28.05;;;15.82;;
69795;SDS011;57073;45.650;9.612;2023-12-29T13:10:18;24.73;;;15.90;;
69795;SDS011;57073;45.650;9.612;2023-12-29T13:15:18;27.27;;;15.70;;
69795;SDS011;57073;45.650;9.612;2023-12-29T13:20:19;25.50;;;15.03;;
69795;SDS011;57073;45.650;9.612;2023-12-29T13:25:20;24.10;;;13.93;;
69795;SDS011;57073;45.650;9.612;2023-12-29T13:30:21;24.30;;;14.50;;
69795;SDS011;57073;45.650;9.612;2023-12-29T13:35:23;22.83;;;14.32;;
69795;SDS011;57073;45.650;9.612;2023-12-29T13:40:39;29.33;;;15.68;;
69795;SDS011;57073;45.650;9.612;2023-12-29T13:45:45;22.47;;;14.17;;
69795;SDS011;57073;45.650;9.612;2023-12-29T13:50:46;25.70;;;14.68;;
69795;SDS011;57073;45.650;9.612;2023-12-29T13:55:47;21.40;;;13.77;;
69795;SDS011;57073;45.650;9.612;2023-12-29T14:00:53;21.80;;;14.00;;
69795;SDS011;57073;45.650;9.612;2023-12-29T14:06:04;21.90;;;12.80;;
69795;SDS011;57073;45.650;9.612;2023-12-29T14:11:08;21.67;;;13.23;;
69795;SDS011;57073;45.650;9.612;2023-12-29T14:16:09;25.87;;;14.07;;
69795;SDS011;57073;45.650;9.612;2023-12-29T14:31:58;26.42;;;14.73;;
69795;SDS011;57073;45.650;9.612;2023-12-29T14:37:00;26.67;;;14.95;;
69795;SDS011;57073;45.650;9.612;2023-12-29T14:42:01;25.97;;;13.87;;
69795;SDS011;57073;45.650;9.612;2023-12-29T14:47:02;22.08;;;13.10;;
69795;SDS011;57073;45.650;9.612;2023-12-29T14:52:02;23.67;;;12.40;;
69795;SDS011;57073;45.650;9.612;2023-12-29T14:57:03;28.10;;;14.60;;
69795;SDS011;57073;45.650;9.612;2023-12-29T15:02:03;28.40;;;15.40;;
69795;SDS011;57073;45.650;9.612;2023-12-29T15:07:07;27.70;;;16.08;;
69795;SDS011;57073;45.650;9.612;2023-12-29T15:12:08;26.20;;;16.23;;
69795;SDS011;57073;45.650;9.612;2023-12-29T15:17:08;28.23;;;15.23;;
69795;SDS011;57073;45.650;9.612;2023-12-29T15:22:09;28.63;;;16.57;;
69795;SDS011;57073;45.650;9.612;2023-12-29T15:27:09;27.40;;;16.63;;
69795;SDS011;57073;45.650;9.612;2023-12-29T15:32:09;29.67;;;16.27;;
69795;SDS011;57073;45.650;9.612;2023-12-29T15:37:10;28.60;;;16.90;;
69795;SDS011;57073;45.650;9.612;2023-12-29T15:42:10;26.83;;;16.77;;
69795;SDS011;57073;45.650;9.612;2023-12-29T15:47:11;33.40;;;17.52;;
69795;SDS011;57073;45.650;9.612;2023-12-29T15:52:11;32.77;;;18.57;;
69795;SDS011;57073;45.650;9.612;2023-12-29T15:57:11;37.97;;;18.77;;
69795;SDS011;57073;45.650;9.612;2023-12-29T16:02:12;35.47;;;18.60;;
69795;SDS011;57073;45.650;9.612;2023-12-29T16:07:12;33.57;;;19.23;;
69795;SDS011;57073;45.650;9.612;2023-12-29T16:12:13;34.70;;;19.85;;
69795;SDS011;57073;45.650;9.612;2023-12-29T16:17:14;33.80;;;20.00;;
69795;SDS011;57073;45.650;9.612;2023-12-29T16:22:14;32.73;;;21.03;;
69795;SDS011;57073;45.650;9.612;2023-12-29T16:27:14;32.83;;;20.77;;
69795;SDS011;57073;45.650;9.612;2023-12-29T16:32:21;36.13;;;21.50;;
69795;SDS011;57073;45.650;9.612;2023-12-29T16:37:23;34.33;;;20.77;;
69795;SDS011;57073;45.650;9.612;2023-12-29T16:42:25;41.15;;;20.92;;
69795;SDS011;57073;45.650;9.612;2023-12-29T16:47:25;31.83;;;21.30;;
69795;SDS011;57073;45.650;9.612;2023-12-29T16:52:26;39.63;;;21.80;;
69795;SDS011;57073;45.650;9.612;2023-12-29T16:57:26;33.00;;;21.87;;
69795;SDS011;57073;45.650;9.612;2023-12-29T17:02:26;41.67;;;23.40;;
69795;SDS011;57073;45.650;9.612;2023-12-29T17:07:27;36.57;;;22.30;;
69795;SDS011;57073;45.650;9.612;2023-12-29T17:12:27;37.43;;;21.83;;
69795;SDS011;57073;45.650;9.612;2023-12-29T17:17:27;34.63;;;21.27;;
69795;SDS011;57073;45.650;9.612;2023-12-29T17:22:28;36.37;;;22.73;;
69795;SDS011;57073;45.650;9.612;2023-12-29T17:27:28;41.87;;;23.70;;
69795;SDS011;57073;45.650;9.612;2023-12-29T17:32:29;35.07;;;21.27;;
69795;SDS011;57073;45.650;9.612;2023-12-29T17:37:29;38.77;;;22.27;;
69795;SDS011;57073;45.650;9.612;2023-12-29T17:42:31;40.53;;;22.02;;
69795;SDS011;57073;45.650;9.612;2023-12-29T17:47:32;39.67;;;23.37;;
69795;SDS011;57073;45.650;9.612;2023-12-29T17:52:32;47.90;;;24.77;;
69795;SDS011;57073;45.650;9.612;2023-12-29T17:57:32;44.90;;;24.43;;
69795;SDS011;57073;45.650;9.612;2023-12-29T18:02:36;45.67;;;23.77;;
69795;SDS011;57073;45.650;9.612;2023-12-29T18:07:37;42.97;;;24.60;;
69795;SDS011;57073;45.650;9.612;2023-12-29T18:12:37;38.00;;;23.50;;
69795;SDS011;57073;45.650;9.612;2023-12-29T18:17:37;41.77;;;23.73;;
69795;SDS011;57073;45.650;9.612;2023-12-29T18:22:38;41.17;;;24.03;;
69795;SDS011;57073;45.650;9.612;2023-12-29T18:27:38;38.97;;;25.00;;
69795;SDS011;57073;45.650;9.612;2023-12-29T18:32:39;39.67;;;24.03;;
69795;SDS011;57073;45.650;9.612;2023-12-29T18:37:39;49.23;;;26.00;;
69795;SDS011;57073;45.650;9.612;2023-12-29T18:42:39;47.10;;;26.00;;
69795;SDS011;57073;45.650;9.612;2023-12-29T18:47:40;39.20;;;23.53;;
69795;SDS011;57073;45.650;9.612;2023-12-29T18:52:40;41.50;;;24.03;;
69795;SDS011;57073;45.650;9.612;2023-12-29T18:57:40;36.30;;;23.33;;
69795;SDS011;57073;45.650;9.612;2023-12-29T19:02:41;38.40;;;22.87;;
69795;SDS011;57073;45.650;9.612;2023-12-29T19:07:41;36.47;;;21.47;;
69795;SDS011;57073;45.650;9.612;2023-12-29T19:12:41;34.43;;;22.00;;
69795;SDS011;57073;45.650;9.612;2023-12-29T19:17:46;41.03;;;22.95;;
69795;SDS011;57073;45.650;9.612;2023-12-29T19:22:47;43.43;;;23.13;;
69795;SDS011;57073;45.650;9.612;2023-12-29T19:27:47;35.47;;;22.47;;
69795;SDS011;57073;45.650;9.612;2023-12-29T19:32:47;34.83;;;21.60;;
69795;SDS011;57073;45.650;9.612;2023-12-29T19:37:49;33.47;;;19.33;;
69795;SDS011;57073;45.650;9.612;2023-12-29T19:42:49;35.20;;;20.93;;
69795;SDS011;57073;45.650;9.612;2023-12-29T19:47:49;36.37;;;20.17;;
69795;SDS011;57073;45.650;9.612;2023-12-29T19:52:50;39.40;;;20.53;;
69795;SDS011;57073;45.650;9.612;2023-12-29T19:57:50;35.30;;;20.73;;
69795;SDS011;57073;45.650;9.612;2023-12-29T20:02:51;36.20;;;20.48;;
69795;SDS011;57073;45.650;9.612;2023-12-29T20:07:51;33.53;;;19.90;;
69795;SDS011;57073;45.650;9.612;2023-12-29T20:12:52;34.27;;;19.73;;
69795;SDS011;57073;45.650;9.612;2023-12-29T20:17:52;32.23;;;20.43;;
69795;SDS011;57073;45.650;9.612;2023-12-29T20:22:52;33.93;;;20.20;;
69795;SDS011;57073;45.650;9.612;2023-12-29T20:27:53;33.17;;;20.20;;
69795;SDS011;57073;45.650;9.612;2023-12-29T20:32:54;33.50;;;19.45;;
69795;SDS011;57073;45.650;9.612;2023-12-29T20:37:56;35.90;;;20.67;;
69795;SDS011;57073;45.650;9.612;2023-12-29T20:42:59;34.70;;;21.37;;
69795;SDS011;57073;45.650;9.612;2023-12-29T20:47:59;33.72;;;20.10;;
69795;SDS011;57073;45.650;9.612;2023-12-29T20:53:00;32.73;;;20.63;;
69795;SDS011;57073;45.650;9.612;2023-12-29T20:58:00;35.07;;;21.03;;
69795;SDS011;57073;45.650;9.612;2023-12-29T21:03:01;36.70;;;22.03;;
69795;SDS011;57073;45.650;9.612;2023-12-29T21:08:02;37.60;;;22.15;;
69795;SDS011;57073;45.650;9.612;2023-12-29T21:13:03;34.93;;;21.47;;
69795;SDS011;57073;45.650;9.612;2023-12-29T21:18:03;34.43;;;21.30;;
69795;SDS011;57073;45.650;9.612;2023-12-29T21:23:12;35.92;;;21.35;;
69795;SDS011;57073;45.650;9.612;2023-12-29T21:28:12;41.03;;;21.67;;
69795;SDS011;57073;45.650;9.612;2023-12-29T21:33:12;34.93;;;21.73;;
69795;SDS011;57073;45.650;9.612;2023-12-29T21:38:13;36.30;;;21.23;;
69795;SDS011;57073;45.650;9.612;2023-12-29T21:43:14;37.63;;;22.20;;
69795;SDS011;57073;45.650;9.612;2023-12-29T21:48:18;35.97;;;22.07;;
69795;SDS011;57073;45.650;9.612;2023-12-29T21:53:18;37.10;;;22.40;;
69795;SDS011;57073;45.650;9.612;2023-12-29T21:58:18;35.93;;;21.87;;
69795;SDS011;57073;45.650;9.612;2023-12-29T22:03:19;33.77;;;20.90;;
69795;SDS011;57073;45.650;9.612;2023-12-29T22:08:25;39.07;;;21.70;;
69795;SDS011;57073;45.650;9.612;2023-12-29T22:13:26;39.27;;;23.20;;
69795;SDS011;57073;45.650;9.612;2023-12-29T22:18:26;36.47;;;22.80;;
69795;SDS011;57073;45.650;9.612;2023-12-29T22:23:26;40.23;;;21.77;;
69795;SDS011;57073;45.650;9.612;2023-12-29T22:28:27;38.53;;;22.33;;
69795;SDS011;57073;45.650;9.612;2023-12-29T22:33:27;36.00;;;22.47;;
69795;SDS011;57073;45.650;9.612;2023-12-29T22:38:27;41.07;;;21.90;;
69795;SDS011;57073;45.650;9.612;2023-12-29T22:43:28;38.37;;;22.00;;
69795;SDS011;57073;45.650;9.612;2023-12-29T22:48:28;36.40;;;22.03;;
69795;SDS011;57073;45.650;9.612;2023-12-29T22:53:29;44.00;;;23.05;;
69795;SDS011;57073;45.650;9.612;2023-12-29T22:58:30;42.00;;;22.70;;
69795;SDS011;57073;45.650;9.612;2023-12-29T23:03:30;36.40;;;21.67;;
69795;SDS011;57073;45.650;9.612;2023-12-29T23:08:30;35.40;;;21.57;;
69795;SDS011;57073;45.650;9.612;2023-12-29T23:13:31;39.67;;;21.95;;
69795;SDS011;57073;45.650;9.612;2023-12-29T23:18:32;38.13;;;20.77;;
69795;SDS011;57073;45.650;9.612;2023-12-29T23:23:32;35.90;;;22.60;;
69795;SDS011;57073;45.650;9.612;2023-12-29T23:28:32;37.23;;;21.40;;
69795;SDS011;57073;45.650;9.612;2023-12-29T23:33:33;43.60;;;22.47;;
69795;SDS011;57073;45.650;9.612;2023-12-29T23:38:33;37.23;;;21.80;;
69795;SDS011;57073;45.650;9.612;2023-12-29T23:43:33;36.43;;;21.67;;
69795;SDS011;57073;45.650;9.612;2023-12-29T23:48:35;38.27;;;20.97;;
69795;SDS011;57073;45.650;9.612;2023-12-29T23:53:35;35.37;;;21.47;;
69795;SDS011;57073;45.650;9.612;2023-12-29T23:58:36;37.67;;;20.47;;
